Terminal Aerodrome Forecast
Issued by NWS Raleigh/Durham, NC

Current Version | Previous Version | Text Only | Print | Product List | Glossary On
Versions: 1 2 3 4 5 6 7 8 9 10 11 12 13 14 15 16 17 18 19 20 21 22 23 24 25 26 27 28 29 30 31
000 FTUS42 KRAH 180540 TAFGSO TAF KGSO 180540Z 1806/1906 07005KT P6SM SCT250 TEMPO 1810/1813 SCT006 BKN250=

USA.gov is the U.S. government's official web portal to all federal, state and local government web resources and services.